sensor_id;sensor_type;location;lat;lon;timestamp;P1;durP1;ratioP1;P2;durP2;ratioP2
14939;SDS011;11825;51.898;8.202;2022-11-20T00:03:27;21.40;;;16.87;;
14939;SDS011;11825;51.898;8.202;2022-11-20T00:08:28;21.73;;;17.20;;
14939;SDS011;11825;51.898;8.202;2022-11-20T00:13:30;24.17;;;17.73;;
14939;SDS011;11825;51.898;8.202;2022-11-20T00:18:33;22.03;;;17.13;;
14939;SDS011;11825;51.898;8.202;2022-11-20T00:23:35;20.73;;;16.77;;
14939;SDS011;11825;51.898;8.202;2022-11-20T00:28:37;22.00;;;17.27;;
14939;SDS011;11825;51.898;8.202;2022-11-20T00:33:39;21.73;;;18.50;;
14939;SDS011;11825;51.898;8.202;2022-11-20T00:38:41;22.33;;;18.90;;
14939;SDS011;11825;51.898;8.202;2022-11-20T00:43:43;22.73;;;18.83;;
14939;SDS011;11825;51.898;8.202;2022-11-20T00:48:45;20.83;;;16.27;;
14939;SDS011;11825;51.898;8.202;2022-11-20T00:53:47;19.73;;;16.20;;
14939;SDS011;11825;51.898;8.202;2022-11-20T00:58:51;21.73;;;15.83;;
14939;SDS011;11825;51.898;8.202;2022-11-20T01:04:02;21.87;;;17.33;;
14939;SDS011;11825;51.898;8.202;2022-11-20T01:09:11;21.03;;;17.80;;
14939;SDS011;11825;51.898;8.202;2022-11-20T01:14:16;20.90;;;15.90;;
14939;SDS011;11825;51.898;8.202;2022-11-20T01:19:22;18.70;;;15.53;;
14939;SDS011;11825;51.898;8.202;2022-11-20T01:24:25;20.13;;;16.67;;
14939;SDS011;11825;51.898;8.202;2022-11-20T01:29:27;19.93;;;16.20;;
14939;SDS011;11825;51.898;8.202;2022-11-20T01:34:29;18.80;;;14.93;;
14939;SDS011;11825;51.898;8.202;2022-11-20T01:39:31;18.57;;;15.90;;
14939;SDS011;11825;51.898;8.202;2022-11-20T01:50:27;19.13;;;16.07;;
14939;SDS011;11825;51.898;8.202;2022-11-20T01:55:34;18.27;;;16.10;;
14939;SDS011;11825;51.898;8.202;2022-11-20T02:00:47;18.17;;;14.87;;
14939;SDS011;11825;51.898;8.202;2022-11-20T02:06:23;18.10;;;14.90;;
14939;SDS011;11825;51.898;8.202;2022-11-20T02:11:39;21.47;;;15.93;;
14939;SDS011;11825;51.898;8.202;2022-11-20T02:16:43;22.20;;;15.60;;
14939;SDS011;11825;51.898;8.202;2022-11-20T02:27:13;17.57;;;15.63;;
14939;SDS011;11825;51.898;8.202;2022-11-20T02:37:27;17.43;;;14.03;;
14939;SDS011;11825;51.898;8.202;2022-11-20T02:42:33;16.33;;;13.53;;
14939;SDS011;11825;51.898;8.202;2022-11-20T02:47:35;20.73;;;15.73;;
14939;SDS011;11825;51.898;8.202;2022-11-20T02:52:37;21.67;;;17.23;;
14939;SDS011;11825;51.898;8.202;2022-11-20T02:57:39;20.50;;;15.80;;
14939;SDS011;11825;51.898;8.202;2022-11-20T03:02:41;19.03;;;15.10;;
14939;SDS011;11825;51.898;8.202;2022-11-20T03:07:43;21.30;;;15.53;;
14939;SDS011;11825;51.898;8.202;2022-11-20T03:12:44;19.40;;;13.63;;
14939;SDS011;11825;51.898;8.202;2022-11-20T03:17:46;14.77;;;13.20;;
14939;SDS011;11825;51.898;8.202;2022-11-20T03:23:02;19.17;;;15.30;;
14939;SDS011;11825;51.898;8.202;2022-11-20T03:28:04;20.47;;;14.23;;
14939;SDS011;11825;51.898;8.202;2022-11-20T03:33:09;19.87;;;15.43;;
14939;SDS011;11825;51.898;8.202;2022-11-20T03:38:15;17.17;;;13.93;;
14939;SDS011;11825;51.898;8.202;2022-11-20T03:43:17;17.37;;;13.57;;
14939;SDS011;11825;51.898;8.202;2022-11-20T03:48:18;16.93;;;13.67;;
14939;SDS011;11825;51.898;8.202;2022-11-20T03:53:20;20.30;;;14.67;;
14939;SDS011;11825;51.898;8.202;2022-11-20T03:58:22;19.30;;;14.50;;
14939;SDS011;11825;51.898;8.202;2022-11-20T04:03:24;17.77;;;14.40;;
14939;SDS011;11825;51.898;8.202;2022-11-20T04:08:27;19.17;;;14.17;;
14939;SDS011;11825;51.898;8.202;2022-11-20T04:13:29;20.10;;;15.80;;
14939;SDS011;11825;51.898;8.202;2022-11-20T04:18:31;21.40;;;16.60;;
14939;SDS011;11825;51.898;8.202;2022-11-20T04:23:33;22.67;;;17.57;;
14939;SDS011;11825;51.898;8.202;2022-11-20T04:28:35;21.23;;;16.57;;
14939;SDS011;11825;51.898;8.202;2022-11-20T04:33:37;26.53;;;19.10;;
14939;SDS011;11825;51.898;8.202;2022-11-20T04:38:40;19.43;;;17.23;;
14939;SDS011;11825;51.898;8.202;2022-11-20T04:43:45;25.33;;;17.63;;
14939;SDS011;11825;51.898;8.202;2022-11-20T04:49:03;23.87;;;16.60;;
14939;SDS011;11825;51.898;8.202;2022-11-20T04:54:05;23.07;;;16.60;;
14939;SDS011;11825;51.898;8.202;2022-11-20T04:59:06;20.27;;;14.90;;
14939;SDS011;11825;51.898;8.202;2022-11-20T05:04:13;24.30;;;16.23;;
14939;SDS011;11825;51.898;8.202;2022-11-20T05:09:22;24.27;;;15.70;;
14939;SDS011;11825;51.898;8.202;2022-11-20T05:14:24;20.87;;;16.33;;
14939;SDS011;11825;51.898;8.202;2022-11-20T05:19:26;21.27;;;16.93;;
14939;SDS011;11825;51.898;8.202;2022-11-20T05:24:28;18.30;;;14.93;;
14939;SDS011;11825;51.898;8.202;2022-11-20T05:29:30;22.53;;;17.23;;
14939;SDS011;11825;51.898;8.202;2022-11-20T05:34:31;16.00;;;14.30;;
14939;SDS011;11825;51.898;8.202;2022-11-20T05:39:33;21.73;;;15.57;;
14939;SDS011;11825;51.898;8.202;2022-11-20T05:44:35;16.17;;;13.70;;
14939;SDS011;11825;51.898;8.202;2022-11-20T05:49:37;23.10;;;17.83;;
14939;SDS011;11825;51.898;8.202;2022-11-20T05:54:38;21.13;;;16.57;;
14939;SDS011;11825;51.898;8.202;2022-11-20T05:59:40;22.10;;;17.27;;
14939;SDS011;11825;51.898;8.202;2022-11-20T06:04:42;21.60;;;14.77;;
14939;SDS011;11825;51.898;8.202;2022-11-20T06:09:44;19.60;;;15.27;;
14939;SDS011;11825;51.898;8.202;2022-11-20T06:14:46;19.43;;;16.50;;
14939;SDS011;11825;51.898;8.202;2022-11-20T06:19:47;22.63;;;16.50;;
14939;SDS011;11825;51.898;8.202;2022-11-20T06:24:49;23.53;;;19.00;;
14939;SDS011;11825;51.898;8.202;2022-11-20T06:30:08;20.47;;;17.80;;
14939;SDS011;11825;51.898;8.202;2022-11-20T06:35:10;21.20;;;17.30;;
14939;SDS011;11825;51.898;8.202;2022-11-20T06:40:15;22.70;;;17.47;;
14939;SDS011;11825;51.898;8.202;2022-11-20T06:45:18;23.40;;;19.53;;
14939;SDS011;11825;51.898;8.202;2022-11-20T06:50:20;24.17;;;19.93;;
14939;SDS011;11825;51.898;8.202;2022-11-20T06:55:21;23.00;;;18.10;;
14939;SDS011;11825;51.898;8.202;2022-11-20T07:00:23;20.80;;;17.53;;
14939;SDS011;11825;51.898;8.202;2022-11-20T07:05:25;19.60;;;16.20;;
14939;SDS011;11825;51.898;8.202;2022-11-20T07:10:27;25.13;;;17.10;;
14939;SDS011;11825;51.898;8.202;2022-11-20T07:15:29;18.53;;;15.93;;
14939;SDS011;11825;51.898;8.202;2022-11-20T07:20:31;17.50;;;14.83;;
14939;SDS011;11825;51.898;8.202;2022-11-20T07:25:33;19.47;;;16.40;;
14939;SDS011;11825;51.898;8.202;2022-11-20T07:30:35;20.27;;;15.73;;
14939;SDS011;11825;51.898;8.202;2022-11-20T07:35:37;19.17;;;16.00;;
14939;SDS011;11825;51.898;8.202;2022-11-20T07:40:41;19.80;;;16.70;;
14939;SDS011;11825;51.898;8.202;2022-11-20T07:45:42;20.13;;;17.37;;
14939;SDS011;11825;51.898;8.202;2022-11-20T07:50:44;21.40;;;19.10;;
14939;SDS011;11825;51.898;8.202;2022-11-20T07:55:47;26.87;;;19.37;;
14939;SDS011;11825;51.898;8.202;2022-11-20T08:01:09;24.80;;;18.57;;
14939;SDS011;11825;51.898;8.202;2022-11-20T08:06:11;22.30;;;17.27;;
14939;SDS011;11825;51.898;8.202;2022-11-20T08:11:16;20.50;;;17.00;;
14939;SDS011;11825;51.898;8.202;2022-11-20T08:16:36;36.53;;;26.60;;
14939;SDS011;11825;51.898;8.202;2022-11-20T08:21:47;34.67;;;29.57;;
14939;SDS011;11825;51.898;8.202;2022-11-20T08:27:03;36.00;;;28.20;;
14939;SDS011;11825;51.898;8.202;2022-11-20T08:32:05;25.03;;;22.27;;
14939;SDS011;11825;51.898;8.202;2022-11-20T08:37:10;24.70;;;20.93;;
14939;SDS011;11825;51.898;8.202;2022-11-20T08:42:21;27.87;;;22.03;;
14939;SDS011;11825;51.898;8.202;2022-11-20T08:47:29;27.57;;;19.20;;
14939;SDS011;11825;51.898;8.202;2022-11-20T08:52:31;23.23;;;19.27;;
14939;SDS011;11825;51.898;8.202;2022-11-20T08:57:40;21.97;;;17.83;;
14939;SDS011;11825;51.898;8.202;2022-11-20T09:08:33;20.13;;;15.93;;
14939;SDS011;11825;51.898;8.202;2022-11-20T09:13:35;19.60;;;15.27;;
14939;SDS011;11825;51.898;8.202;2022-11-20T09:18:37;19.17;;;16.40;;
14939;SDS011;11825;51.898;8.202;2022-11-20T09:23:39;16.23;;;14.53;;
14939;SDS011;11825;51.898;8.202;2022-11-20T09:28:41;16.30;;;14.50;;
14939;SDS011;11825;51.898;8.202;2022-11-20T09:33:43;28.30;;;18.33;;
14939;SDS011;11825;51.898;8.202;2022-11-20T09:38:45;15.80;;;14.03;;
14939;SDS011;11825;51.898;8.202;2022-11-20T09:55:00;14.50;;;13.10;;
14939;SDS011;11825;51.898;8.202;2022-11-20T10:00:04;14.13;;;12.40;;
14939;SDS011;11825;51.898;8.202;2022-11-20T11:08:39;15.23;;;12.50;;
14939;SDS011;11825;51.898;8.202;2022-11-20T11:13:41;16.70;;;12.90;;
14939;SDS011;11825;51.898;8.202;2022-11-20T11:24:01;15.83;;;14.10;;
14939;SDS011;11825;51.898;8.202;2022-11-20T11:34:40;15.20;;;12.83;;
14939;SDS011;11825;51.898;8.202;2022-11-20T11:45:06;15.90;;;12.63;;
14939;SDS011;11825;51.898;8.202;2022-11-20T11:50:17;15.17;;;12.63;;
14939;SDS011;11825;51.898;8.202;2022-11-20T12:01:07;15.20;;;11.93;;
14939;SDS011;11825;51.898;8.202;2022-11-20T12:11:58;15.30;;;13.23;;
14939;SDS011;11825;51.898;8.202;2022-11-20T12:17:31;16.33;;;13.53;;
14939;SDS011;11825;51.898;8.202;2022-11-20T13:07:03;13.50;;;10.10;;
14939;SDS011;11825;51.898;8.202;2022-11-20T13:17:26;15.20;;;12.37;;
14939;SDS011;11825;51.898;8.202;2022-11-20T13:22:44;17.03;;;14.20;;
14939;SDS011;11825;51.898;8.202;2022-11-20T13:27:47;18.03;;;13.80;;
14939;SDS011;11825;51.898;8.202;2022-11-20T13:38:11;17.07;;;13.73;;
14939;SDS011;11825;51.898;8.202;2022-11-20T13:43:21;19.40;;;13.57;;
14939;SDS011;11825;51.898;8.202;2022-11-20T13:48:46;17.63;;;13.77;;
14939;SDS011;11825;51.898;8.202;2022-11-20T13:59:51;21.47;;;14.93;;
14939;SDS011;11825;51.898;8.202;2022-11-20T14:10:00;19.97;;;15.17;;
14939;SDS011;11825;51.898;8.202;2022-11-20T14:15:02;20.10;;;14.40;;
14939;SDS011;11825;51.898;8.202;2022-11-20T14:20:06;19.63;;;14.90;;
14939;SDS011;11825;51.898;8.202;2022-11-20T14:25:33;15.90;;;13.60;;
14939;SDS011;11825;51.898;8.202;2022-11-20T14:31:21;22.03;;;14.93;;
14939;SDS011;11825;51.898;8.202;2022-11-20T14:36:27;19.63;;;14.37;;
14939;SDS011;11825;51.898;8.202;2022-11-20T14:41:29;20.23;;;14.37;;
14939;SDS011;11825;51.898;8.202;2022-11-20T14:46:37;18.73;;;14.40;;
14939;SDS011;11825;51.898;8.202;2022-11-20T14:51:39;20.30;;;17.30;;
14939;SDS011;11825;51.898;8.202;2022-11-20T14:56:57;23.50;;;17.90;;
14939;SDS011;11825;51.898;8.202;2022-11-20T15:02:06;19.73;;;15.53;;
14939;SDS011;11825;51.898;8.202;2022-11-20T15:07:10;23.10;;;18.70;;
14939;SDS011;11825;51.898;8.202;2022-11-20T15:12:28;29.80;;;20.93;;
14939;SDS011;11825;51.898;8.202;2022-11-20T15:17:32;24.87;;;18.67;;
14939;SDS011;11825;51.898;8.202;2022-11-20T15:22:39;25.43;;;20.57;;
14939;SDS011;11825;51.898;8.202;2022-11-20T15:27:41;24.13;;;20.00;;
14939;SDS011;11825;51.898;8.202;2022-11-20T15:32:46;23.77;;;19.03;;
14939;SDS011;11825;51.898;8.202;2022-11-20T15:37:48;23.67;;;19.50;;
14939;SDS011;11825;51.898;8.202;2022-11-20T15:43:04;23.57;;;18.67;;
14939;SDS011;11825;51.898;8.202;2022-11-20T15:53:26;24.13;;;19.23;;
14939;SDS011;11825;51.898;8.202;2022-11-20T15:58:28;24.07;;;19.67;;
14939;SDS011;11825;51.898;8.202;2022-11-20T16:03:30;28.00;;;22.03;;
14939;SDS011;11825;51.898;8.202;2022-11-20T16:08:35;30.57;;;23.10;;
14939;SDS011;11825;51.898;8.202;2022-11-20T16:13:42;34.43;;;26.37;;
14939;SDS011;11825;51.898;8.202;2022-11-20T16:19:03;33.40;;;27.60;;
14939;SDS011;11825;51.898;8.202;2022-11-20T16:34:50;25.50;;;21.43;;
14939;SDS011;11825;51.898;8.202;2022-11-20T16:39:51;25.73;;;22.80;;
14939;SDS011;11825;51.898;8.202;2022-11-20T16:44:53;31.40;;;25.23;;
14939;SDS011;11825;51.898;8.202;2022-11-20T16:49:58;25.10;;;21.27;;
14939;SDS011;11825;51.898;8.202;2022-11-20T16:55:02;28.17;;;22.63;;
14939;SDS011;11825;51.898;8.202;2022-11-20T17:00:14;21.87;;;18.53;;
14939;SDS011;11825;51.898;8.202;2022-11-20T17:05:19;24.43;;;19.10;;
14939;SDS011;11825;51.898;8.202;2022-11-20T17:10:24;26.87;;;21.63;;
14939;SDS011;11825;51.898;8.202;2022-11-20T17:15:26;27.40;;;22.67;;
14939;SDS011;11825;51.898;8.202;2022-11-20T17:20:28;22.87;;;18.53;;
14939;SDS011;11825;51.898;8.202;2022-11-20T17:25:31;19.90;;;17.47;;
14939;SDS011;11825;51.898;8.202;2022-11-20T17:30:36;24.43;;;17.53;;
14939;SDS011;11825;51.898;8.202;2022-11-20T17:35:38;25.47;;;17.67;;
14939;SDS011;11825;51.898;8.202;2022-11-20T17:40:40;22.97;;;17.53;;
14939;SDS011;11825;51.898;8.202;2022-11-20T17:45:55;19.70;;;16.10;;
14939;SDS011;11825;51.898;8.202;2022-11-20T17:51:01;22.53;;;17.67;;
14939;SDS011;11825;51.898;8.202;2022-11-20T17:56:03;21.50;;;16.50;;
14939;SDS011;11825;51.898;8.202;2022-11-20T18:01:27;21.53;;;16.57;;
14939;SDS011;11825;51.898;8.202;2022-11-20T18:06:29;23.63;;;18.70;;
14939;SDS011;11825;51.898;8.202;2022-11-20T18:11:33;26.03;;;20.43;;
14939;SDS011;11825;51.898;8.202;2022-11-20T18:16:38;25.73;;;19.17;;
14939;SDS011;11825;51.898;8.202;2022-11-20T18:21:46;29.03;;;20.97;;
14939;SDS011;11825;51.898;8.202;2022-11-20T18:26:48;29.10;;;22.15;;
14939;SDS011;11825;51.898;8.202;2022-11-20T18:31:52;27.50;;;20.10;;
14939;SDS011;11825;51.898;8.202;2022-11-20T18:36:58;26.07;;;20.77;;
14939;SDS011;11825;51.898;8.202;2022-11-20T18:42:03;30.07;;;20.23;;
14939;SDS011;11825;51.898;8.202;2022-11-20T18:47:26;28.43;;;20.30;;
14939;SDS011;11825;51.898;8.202;2022-11-20T18:52:31;25.70;;;19.87;;
14939;SDS011;11825;51.898;8.202;2022-11-20T18:57:34;28.07;;;19.53;;
14939;SDS011;11825;51.898;8.202;2022-11-20T19:02:37;31.03;;;21.70;;
14939;SDS011;11825;51.898;8.202;2022-11-20T19:07:43;32.87;;;22.13;;
14939;SDS011;11825;51.898;8.202;2022-11-20T19:12:45;28.73;;;21.50;;
14939;SDS011;11825;51.898;8.202;2022-11-20T19:17:47;31.13;;;22.67;;
14939;SDS011;11825;51.898;8.202;2022-11-20T19:22:49;30.37;;;23.10;;
14939;SDS011;11825;51.898;8.202;2022-11-20T19:27:53;28.83;;;21.20;;
14939;SDS011;11825;51.898;8.202;2022-11-20T19:43:33;31.73;;;20.73;;
14939;SDS011;11825;51.898;8.202;2022-11-20T19:48:36;32.23;;;23.27;;
14939;SDS011;11825;51.898;8.202;2022-11-20T19:53:42;33.90;;;22.03;;
14939;SDS011;11825;51.898;8.202;2022-11-20T19:58:49;30.83;;;20.63;;
14939;SDS011;11825;51.898;8.202;2022-11-20T20:04:03;31.27;;;19.63;;
14939;SDS011;11825;51.898;8.202;2022-11-20T20:09:19;29.40;;;21.27;;
14939;SDS011;11825;51.898;8.202;2022-11-20T20:14:24;34.83;;;21.93;;
14939;SDS011;11825;51.898;8.202;2022-11-20T20:31:31;30.27;;;19.07;;
14939;SDS011;11825;51.898;8.202;2022-11-20T20:37:31;29.87;;;20.37;;
14939;SDS011;11825;51.898;8.202;2022-11-20T20:43:07;28.90;;;19.47;;
14939;SDS011;11825;51.898;8.202;2022-11-20T20:54:44;27.13;;;18.17;;
14939;SDS011;11825;51.898;8.202;2022-11-20T21:00:36;29.23;;;18.30;;
14939;SDS011;11825;51.898;8.202;2022-11-20T21:05:40;28.20;;;18.30;;
14939;SDS011;11825;51.898;8.202;2022-11-20T21:10:50;30.20;;;18.80;;
14939;SDS011;11825;51.898;8.202;2022-11-20T21:16:25;29.77;;;20.40;;
14939;SDS011;11825;51.898;8.202;2022-11-20T21:21:27;26.03;;;17.93;;
14939;SDS011;11825;51.898;8.202;2022-11-20T21:26:49;23.43;;;16.47;;
14939;SDS011;11825;51.898;8.202;2022-11-20T21:31:59;21.37;;;16.83;;
14939;SDS011;11825;51.898;8.202;2022-11-20T21:37:03;24.77;;;16.03;;
14939;SDS011;11825;51.898;8.202;2022-11-20T21:47:36;19.50;;;15.07;;
14939;SDS011;11825;51.898;8.202;2022-11-20T21:52:38;21.93;;;16.20;;
14939;SDS011;11825;51.898;8.202;2022-11-20T21:57:40;24.10;;;17.33;;
14939;SDS011;11825;51.898;8.202;2022-11-20T22:02:42;22.87;;;16.10;;
14939;SDS011;11825;51.898;8.202;2022-11-20T22:07:45;27.37;;;18.47;;
14939;SDS011;11825;51.898;8.202;2022-11-20T22:12:47;25.77;;;18.27;;
14939;SDS011;11825;51.898;8.202;2022-11-20T22:17:50;23.47;;;17.03;;
14939;SDS011;11825;51.898;8.202;2022-11-20T22:23:11;22.83;;;16.60;;
14939;SDS011;11825;51.898;8.202;2022-11-20T22:28:13;23.07;;;15.63;;
14939;SDS011;11825;51.898;8.202;2022-11-20T22:33:17;20.50;;;16.23;;
14939;SDS011;11825;51.898;8.202;2022-11-20T22:38:22;22.90;;;16.37;;
14939;SDS011;11825;51.898;8.202;2022-11-20T22:43:29;25.93;;;18.73;;
14939;SDS011;11825;51.898;8.202;2022-11-20T22:48:32;24.77;;;19.10;;
14939;SDS011;11825;51.898;8.202;2022-11-20T22:53:35;27.00;;;19.53;;
14939;SDS011;11825;51.898;8.202;2022-11-20T22:58:41;27.67;;;20.83;;
14939;SDS011;11825;51.898;8.202;2022-11-20T23:03:46;26.27;;;19.63;;
14939;SDS011;11825;51.898;8.202;2022-11-20T23:08:49;28.07;;;20.67;;
14939;SDS011;11825;51.898;8.202;2022-11-20T23:13:52;28.93;;;20.47;;
14939;SDS011;11825;51.898;8.202;2022-11-20T23:18:59;24.90;;;18.17;;
14939;SDS011;11825;51.898;8.202;2022-11-20T23:24:02;32.47;;;21.53;;
14939;SDS011;11825;51.898;8.202;2022-11-20T23:29:04;30.87;;;21.53;;
14939;SDS011;11825;51.898;8.202;2022-11-20T23:34:07;30.57;;;22.17;;
14939;SDS011;11825;51.898;8.202;2022-11-20T23:39:09;32.30;;;22.67;;
14939;SDS011;11825;51.898;8.202;2022-11-20T23:44:22;28.57;;;21.33;;
14939;SDS011;11825;51.898;8.202;2022-11-20T23:49:26;29.77;;;22.10;;
14939;SDS011;11825;51.898;8.202;2022-11-20T23:54:27;28.33;;;20.07;;
14939;SDS011;11825;51.898;8.202;2022-11-20T23:59:37;32.20;;;23.47;;
